sensor_id;sensor_type;location;lat;lon;timestamp;P1;durP1;ratioP1;P2;durP2;ratioP2
52650;SDS011;38537;47.226;39.702;2023-05-10T00:02:24;8.38;;;3.92;;
52650;SDS011;38537;47.226;39.702;2023-05-10T00:04:51;6.18;;;4.00;;
52650;SDS011;38537;47.226;39.702;2023-05-10T00:07:19;4.93;;;3.90;;
52650;SDS011;38537;47.226;39.702;2023-05-10T00:09:46;5.57;;;3.90;;
52650;SDS011;38537;47.226;39.702;2023-05-10T00:12:13;5.38;;;3.70;;
52650;SDS011;38537;47.226;39.702;2023-05-10T00:14:41;6.28;;;4.00;;
52650;SDS011;38537;47.226;39.702;2023-05-10T00:17:08;5.32;;;3.88;;
52650;SDS011;38537;47.226;39.702;2023-05-10T00:19:35;4.80;;;3.83;;
52650;SDS011;38537;47.226;39.702;2023-05-10T00:22:02;7.28;;;4.10;;
52650;SDS011;38537;47.226;39.702;2023-05-10T00:24:30;7.75;;;4.00;;
52650;SDS011;38537;47.226;39.702;2023-05-10T00:26:57;5.35;;;4.15;;
52650;SDS011;38537;47.226;39.702;2023-05-10T00:29:24;7.15;;;4.13;;
52650;SDS011;38537;47.226;39.702;2023-05-10T00:31:52;7.20;;;4.05;;
52650;SDS011;38537;47.226;39.702;2023-05-10T00:34:19;6.25;;;4.28;;
52650;SDS011;38537;47.226;39.702;2023-05-10T00:36:47;7.03;;;4.43;;
52650;SDS011;38537;47.226;39.702;2023-05-10T00:39:16;5.38;;;4.13;;
52650;SDS011;38537;47.226;39.702;2023-05-10T00:41:43;6.93;;;4.40;;
52650;SDS011;38537;47.226;39.702;2023-05-10T00:44:11;5.88;;;4.07;;
52650;SDS011;38537;47.226;39.702;2023-05-10T00:46:38;6.85;;;4.30;;
52650;SDS011;38537;47.226;39.702;2023-05-10T00:49:05;6.35;;;4.50;;
52650;SDS011;38537;47.226;39.702;2023-05-10T00:51:33;6.40;;;4.70;;
52650;SDS011;38537;47.226;39.702;2023-05-10T00:54:02;7.40;;;4.30;;
52650;SDS011;38537;47.226;39.702;2023-05-10T00:56:29;5.57;;;3.92;;
52650;SDS011;38537;47.226;39.702;2023-05-10T00:58:57;6.13;;;4.22;;
52650;SDS011;38537;47.226;39.702;2023-05-10T01:01:24;5.95;;;4.03;;
52650;SDS011;38537;47.226;39.702;2023-05-10T01:03:52;5.80;;;4.05;;
52650;SDS011;38537;47.226;39.702;2023-05-10T01:06:20;5.05;;;4.47;;
52650;SDS011;38537;47.226;39.702;2023-05-10T01:08:47;5.35;;;4.50;;
52650;SDS011;38537;47.226;39.702;2023-05-10T01:11:15;7.18;;;4.47;;
52650;SDS011;38537;47.226;39.702;2023-05-10T01:13:43;5.57;;;4.30;;
52650;SDS011;38537;47.226;39.702;2023-05-10T01:16:16;7.57;;;4.50;;
52650;SDS011;38537;47.226;39.702;2023-05-10T01:18:44;6.45;;;4.40;;
52650;SDS011;38537;47.226;39.702;2023-05-10T01:21:17;7.15;;;4.75;;
52650;SDS011;38537;47.226;39.702;2023-05-10T01:24:09;5.75;;;4.45;;
52650;SDS011;38537;47.226;39.702;2023-05-10T01:36:03;5.43;;;4.47;;
52650;SDS011;38537;47.226;39.702;2023-05-10T01:38:42;4.78;;;3.97;;
52650;SDS011;38537;47.226;39.702;2023-05-10T01:41:18;7.43;;;4.53;;
52650;SDS011;38537;47.226;39.702;2023-05-10T01:46:41;4.78;;;4.30;;
52650;SDS011;38537;47.226;39.702;2023-05-10T01:49:09;6.05;;;4.43;;
52650;SDS011;38537;47.226;39.702;2023-05-10T01:51:45;5.60;;;4.65;;
52650;SDS011;38537;47.226;39.702;2023-05-10T01:54:16;6.15;;;4.35;;
52650;SDS011;38537;47.226;39.702;2023-05-10T01:56:47;5.55;;;4.25;;
52650;SDS011;38537;47.226;39.702;2023-05-10T01:59:28;5.97;;;4.78;;
52650;SDS011;38537;47.226;39.702;2023-05-10T02:02:02;5.70;;;4.57;;
52650;SDS011;38537;47.226;39.702;2023-05-10T02:04:33;5.88;;;4.78;;
52650;SDS011;38537;47.226;39.702;2023-05-10T02:07:05;5.70;;;4.25;;
52650;SDS011;38537;47.226;39.702;2023-05-10T02:09:34;4.88;;;4.38;;
52650;SDS011;38537;47.226;39.702;2023-05-10T02:12:03;7.50;;;4.35;;
52650;SDS011;38537;47.226;39.702;2023-05-10T02:14:35;5.55;;;4.45;;
52650;SDS011;38537;47.226;39.702;2023-05-10T02:17:04;6.75;;;5.13;;
52650;SDS011;38537;47.226;39.702;2023-05-10T02:19:34;6.32;;;5.03;;
52650;SDS011;38537;47.226;39.702;2023-05-10T02:22:04;6.43;;;4.95;;
52650;SDS011;38537;47.226;39.702;2023-05-10T02:24:33;5.50;;;4.32;;
52650;SDS011;38537;47.226;39.702;2023-05-10T02:27:02;5.82;;;4.25;;
52650;SDS011;38537;47.226;39.702;2023-05-10T02:29:31;6.63;;;4.25;;
52650;SDS011;38537;47.226;39.702;2023-05-10T02:31:59;7.30;;;4.50;;
52650;SDS011;38537;47.226;39.702;2023-05-10T02:34:27;5.70;;;4.78;;
52650;SDS011;38537;47.226;39.702;2023-05-10T02:36:55;7.10;;;4.50;;
52650;SDS011;38537;47.226;39.702;2023-05-10T02:39:24;7.55;;;4.22;;
52650;SDS011;38537;47.226;39.702;2023-05-10T02:41:56;7.35;;;5.03;;
52650;SDS011;38537;47.226;39.702;2023-05-10T02:44:24;6.60;;;4.50;;
52650;SDS011;38537;47.226;39.702;2023-05-10T02:46:55;7.47;;;4.88;;
52650;SDS011;38537;47.226;39.702;2023-05-10T02:49:23;6.57;;;4.80;;
52650;SDS011;38537;47.226;39.702;2023-05-10T02:51:51;8.75;;;4.65;;
52650;SDS011;38537;47.226;39.702;2023-05-10T02:54:27;6.28;;;4.40;;
52650;SDS011;38537;47.226;39.702;2023-05-10T02:56:59;7.80;;;4.60;;
52650;SDS011;38537;47.226;39.702;2023-05-10T02:59:30;6.05;;;4.72;;
52650;SDS011;38537;47.226;39.702;2023-05-10T03:01:59;5.75;;;4.53;;
52650;SDS011;38537;47.226;39.702;2023-05-10T03:04:27;6.25;;;4.55;;
52650;SDS011;38537;47.226;39.702;2023-05-10T03:06:55;7.70;;;4.50;;
52650;SDS011;38537;47.226;39.702;2023-05-10T03:09:24;5.97;;;4.90;;
52650;SDS011;38537;47.226;39.702;2023-05-10T03:14:52;7.25;;;4.70;;
52650;SDS011;38537;47.226;39.702;2023-05-10T03:20:24;6.07;;;5.05;;
52650;SDS011;38537;47.226;39.702;2023-05-10T03:23:00;5.70;;;4.57;;
52650;SDS011;38537;47.226;39.702;2023-05-10T03:25:35;6.78;;;5.07;;
52650;SDS011;38537;47.226;39.702;2023-05-10T03:28:05;6.47;;;5.30;;
52650;SDS011;38537;47.226;39.702;2023-05-10T03:30:33;6.63;;;5.30;;
52650;SDS011;38537;47.226;39.702;2023-05-10T03:33:05;8.82;;;5.80;;
52650;SDS011;38537;47.226;39.702;2023-05-10T03:35:38;7.93;;;5.50;;
52650;SDS011;38537;47.226;39.702;2023-05-10T03:38:06;8.10;;;5.60;;
52650;SDS011;38537;47.226;39.702;2023-05-10T03:40:33;8.85;;;5.30;;
52650;SDS011;38537;47.226;39.702;2023-05-10T03:43:01;6.28;;;5.47;;
52650;SDS011;38537;47.226;39.702;2023-05-10T03:45:28;8.35;;;5.85;;
52650;SDS011;38537;47.226;39.702;2023-05-10T03:47:55;7.35;;;5.78;;
52650;SDS011;38537;47.226;39.702;2023-05-10T03:50:24;8.68;;;5.60;;
52650;SDS011;38537;47.226;39.702;2023-05-10T03:52:53;6.93;;;5.13;;
52650;SDS011;38537;47.226;39.702;2023-05-10T03:55:20;6.55;;;5.35;;
52650;SDS011;38537;47.226;39.702;2023-05-10T03:57:49;8.13;;;4.95;;
52650;SDS011;38537;47.226;39.702;2023-05-10T04:00:17;7.93;;;5.00;;
52650;SDS011;38537;47.226;39.702;2023-05-10T04:02:48;6.30;;;4.80;;
52650;SDS011;38537;47.226;39.702;2023-05-10T04:05:18;6.35;;;5.10;;
52650;SDS011;38537;47.226;39.702;2023-05-10T04:07:45;8.15;;;4.97;;
52650;SDS011;38537;47.226;39.702;2023-05-10T04:10:14;6.53;;;4.80;;
52650;SDS011;38537;47.226;39.702;2023-05-10T04:12:45;6.70;;;5.30;;
52650;SDS011;38537;47.226;39.702;2023-05-10T04:15:12;6.65;;;5.10;;
52650;SDS011;38537;47.226;39.702;2023-05-10T04:17:40;7.57;;;5.18;;
52650;SDS011;38537;47.226;39.702;2023-05-10T04:20:07;6.57;;;5.40;;
52650;SDS011;38537;47.226;39.702;2023-05-10T04:22:35;7.43;;;5.00;;
52650;SDS011;38537;47.226;39.702;2023-05-10T04:25:02;8.55;;;5.30;;
52650;SDS011;38537;47.226;39.702;2023-05-10T04:27:30;8.73;;;5.68;;
52650;SDS011;38537;47.226;39.702;2023-05-10T04:29:57;7.72;;;5.35;;
52650;SDS011;38537;47.226;39.702;2023-05-10T04:32:25;7.32;;;5.40;;
52650;SDS011;38537;47.226;39.702;2023-05-10T04:34:52;9.43;;;5.65;;
52650;SDS011;38537;47.226;39.702;2023-05-10T04:37:20;7.80;;;5.32;;
52650;SDS011;38537;47.226;39.702;2023-05-10T04:39:48;5.90;;;5.03;;
52650;SDS011;38537;47.226;39.702;2023-05-10T04:42:15;7.88;;;5.65;;
52650;SDS011;38537;47.226;39.702;2023-05-10T04:44:42;6.97;;;5.30;;
52650;SDS011;38537;47.226;39.702;2023-05-10T04:47:10;6.20;;;5.05;;
52650;SDS011;38537;47.226;39.702;2023-05-10T04:49:38;6.10;;;5.45;;
52650;SDS011;38537;47.226;39.702;2023-05-10T04:52:05;5.88;;;5.28;;
52650;SDS011;38537;47.226;39.702;2023-05-10T04:54:33;6.30;;;5.28;;
52650;SDS011;38537;47.226;39.702;2023-05-10T04:57:01;7.28;;;5.20;;
52650;SDS011;38537;47.226;39.702;2023-05-10T04:59:28;6.93;;;5.35;;
52650;SDS011;38537;47.226;39.702;2023-05-10T05:01:55;7.38;;;5.15;;
52650;SDS011;38537;47.226;39.702;2023-05-10T05:04:23;8.43;;;4.93;;
52650;SDS011;38537;47.226;39.702;2023-05-10T05:06:51;8.75;;;5.20;;
52650;SDS011;38537;47.226;39.702;2023-05-10T05:09:19;6.78;;;5.10;;
52650;SDS011;38537;47.226;39.702;2023-05-10T05:11:46;6.80;;;5.30;;
52650;SDS011;38537;47.226;39.702;2023-05-10T05:14:14;6.22;;;5.03;;
52650;SDS011;38537;47.226;39.702;2023-05-10T05:16:41;5.05;;;4.53;;
52650;SDS011;38537;47.226;39.702;2023-05-10T05:19:08;5.45;;;4.57;;
52650;SDS011;38537;47.226;39.702;2023-05-10T05:21:35;6.10;;;4.50;;
52650;SDS011;38537;47.226;39.702;2023-05-10T05:24:03;6.57;;;4.47;;
52650;SDS011;38537;47.226;39.702;2023-05-10T05:26:30;7.13;;;5.05;;
52650;SDS011;38537;47.226;39.702;2023-05-10T05:28:57;7.03;;;4.55;;
52650;SDS011;38537;47.226;39.702;2023-05-10T05:31:24;6.07;;;4.97;;
52650;SDS011;38537;47.226;39.702;2023-05-10T05:33:52;6.57;;;4.78;;
52650;SDS011;38537;47.226;39.702;2023-05-10T05:36:19;7.35;;;4.43;;
52650;SDS011;38537;47.226;39.702;2023-05-10T05:38:47;5.93;;;4.72;;
52650;SDS011;38537;47.226;39.702;2023-05-10T05:41:15;5.57;;;4.90;;
52650;SDS011;38537;47.226;39.702;2023-05-10T05:43:42;6.78;;;5.00;;
52650;SDS011;38537;47.226;39.702;2023-05-10T05:46:09;6.20;;;4.90;;
52650;SDS011;38537;47.226;39.702;2023-05-10T05:48:37;5.43;;;4.85;;
52650;SDS011;38537;47.226;39.702;2023-05-10T05:51:04;7.35;;;5.03;;
52650;SDS011;38537;47.226;39.702;2023-05-10T05:53:33;6.25;;;4.10;;
52650;SDS011;38537;47.226;39.702;2023-05-10T05:56:00;5.15;;;4.50;;
52650;SDS011;38537;47.226;39.702;2023-05-10T05:58:28;7.63;;;4.53;;
52650;SDS011;38537;47.226;39.702;2023-05-10T06:00:55;5.07;;;4.07;;
52650;SDS011;38537;47.226;39.702;2023-05-10T06:03:23;6.65;;;3.78;;
52650;SDS011;38537;47.226;39.702;2023-05-10T06:05:50;5.22;;;3.80;;
52650;SDS011;38537;47.226;39.702;2023-05-10T06:08:18;4.30;;;3.80;;
52650;SDS011;38537;47.226;39.702;2023-05-10T06:10:45;5.10;;;4.03;;
52650;SDS011;38537;47.226;39.702;2023-05-10T06:13:12;6.57;;;3.97;;
52650;SDS011;38537;47.226;39.702;2023-05-10T06:15:40;6.15;;;4.40;;
52650;SDS011;38537;47.226;39.702;2023-05-10T06:18:07;5.05;;;4.50;;
52650;SDS011;38537;47.226;39.702;2023-05-10T06:20:34;5.50;;;4.30;;
52650;SDS011;38537;47.226;39.702;2023-05-10T06:23:02;5.70;;;5.10;;
52650;SDS011;38537;47.226;39.702;2023-05-10T06:25:29;5.28;;;4.15;;
52650;SDS011;38537;47.226;39.702;2023-05-10T06:27:56;4.70;;;4.20;;
52650;SDS011;38537;47.226;39.702;2023-05-10T06:30:25;4.90;;;3.80;;
52650;SDS011;38537;47.226;39.702;2023-05-10T06:32:56;4.63;;;4.05;;
52650;SDS011;38537;47.226;39.702;2023-05-10T06:35:24;4.70;;;3.97;;
52650;SDS011;38537;47.226;39.702;2023-05-10T06:37:51;5.25;;;4.00;;
52650;SDS011;38537;47.226;39.702;2023-05-10T06:40:19;4.50;;;4.00;;
52650;SDS011;38537;47.226;39.702;2023-05-10T06:42:47;5.97;;;4.03;;
52650;SDS011;38537;47.226;39.702;2023-05-10T06:45:15;6.97;;;4.18;;
52650;SDS011;38537;47.226;39.702;2023-05-10T06:47:43;4.95;;;3.95;;
52650;SDS011;38537;47.226;39.702;2023-05-10T06:50:10;4.13;;;3.47;;
52650;SDS011;38537;47.226;39.702;2023-05-10T06:52:38;3.92;;;3.55;;
52650;SDS011;38537;47.226;39.702;2023-05-10T06:55:06;4.80;;;3.58;;
52650;SDS011;38537;47.226;39.702;2023-05-10T06:57:35;5.40;;;3.90;;
52650;SDS011;38537;47.226;39.702;2023-05-10T07:00:02;5.72;;;3.33;;
52650;SDS011;38537;47.226;39.702;2023-05-10T07:02:33;3.90;;;3.50;;
52650;SDS011;38537;47.226;39.702;2023-05-10T07:05:01;5.45;;;3.20;;
52650;SDS011;38537;47.226;39.702;2023-05-10T07:07:31;4.78;;;3.50;;
52650;SDS011;38537;47.226;39.702;2023-05-10T07:09:58;4.07;;;3.60;;
52650;SDS011;38537;47.226;39.702;2023-05-10T07:12:27;6.38;;;4.07;;
52650;SDS011;38537;47.226;39.702;2023-05-10T07:14:54;4.70;;;4.20;;
52650;SDS011;38537;47.226;39.702;2023-05-10T07:17:21;4.68;;;4.03;;
52650;SDS011;38537;47.226;39.702;2023-05-10T07:19:49;6.13;;;4.07;;
52650;SDS011;38537;47.226;39.702;2023-05-10T07:22:16;3.90;;;3.20;;
52650;SDS011;38537;47.226;39.702;2023-05-10T07:24:44;4.97;;;3.63;;
52650;SDS011;38537;47.226;39.702;2023-05-10T07:27:12;5.47;;;3.88;;
52650;SDS011;38537;47.226;39.702;2023-05-10T07:29:39;5.32;;;3.78;;
52650;SDS011;38537;47.226;39.702;2023-05-10T07:32:07;6.68;;;4.05;;
52650;SDS011;38537;47.226;39.702;2023-05-10T07:34:34;6.85;;;4.15;;
52650;SDS011;38537;47.226;39.702;2023-05-10T07:37:01;6.88;;;4.20;;
52650;SDS011;38537;47.226;39.702;2023-05-10T07:39:30;6.32;;;4.20;;
52650;SDS011;38537;47.226;39.702;2023-05-10T07:41:57;6.38;;;4.43;;
52650;SDS011;38537;47.226;39.702;2023-05-10T07:44:25;5.93;;;4.20;;
52650;SDS011;38537;47.226;39.702;2023-05-10T07:46:52;4.75;;;3.70;;
52650;SDS011;38537;47.226;39.702;2023-05-10T07:49:20;5.30;;;4.40;;
52650;SDS011;38537;47.226;39.702;2023-05-10T07:51:47;5.88;;;4.88;;
52650;SDS011;38537;47.226;39.702;2023-05-10T07:54:14;7.40;;;4.70;;
52650;SDS011;38537;47.226;39.702;2023-05-10T07:56:42;10.00;;;4.90;;
52650;SDS011;38537;47.226;39.702;2023-05-10T07:59:17;7.68;;;4.95;;
52650;SDS011;38537;47.226;39.702;2023-05-10T08:01:44;5.75;;;4.13;;
52650;SDS011;38537;47.226;39.702;2023-05-10T08:04:12;6.90;;;4.80;;
52650;SDS011;38537;47.226;39.702;2023-05-10T08:06:39;5.10;;;4.05;;
52650;SDS011;38537;47.226;39.702;2023-05-10T08:09:07;8.93;;;4.28;;
52650;SDS011;38537;47.226;39.702;2023-05-10T08:11:35;9.23;;;4.05;;
52650;SDS011;38537;47.226;39.702;2023-05-10T08:14:03;9.40;;;4.13;;
52650;SDS011;38537;47.226;39.702;2023-05-10T08:16:30;4.70;;;3.65;;
52650;SDS011;38537;47.226;39.702;2023-05-10T08:18:57;7.63;;;4.45;;
52650;SDS011;38537;47.226;39.702;2023-05-10T08:21:25;7.22;;;4.97;;
52650;SDS011;38537;47.226;39.702;2023-05-10T08:23:52;7.32;;;4.95;;
52650;SDS011;38537;47.226;39.702;2023-05-10T08:26:20;9.50;;;5.10;;
52650;SDS011;38537;47.226;39.702;2023-05-10T08:28:48;13.00;;;5.65;;
52650;SDS011;38537;47.226;39.702;2023-05-10T08:31:15;8.93;;;4.80;;
52650;SDS011;38537;47.226;39.702;2023-05-10T08:33:43;10.32;;;4.72;;
52650;SDS011;38537;47.226;39.702;2023-05-10T08:36:11;7.00;;;4.20;;
52650;SDS011;38537;47.226;39.702;2023-05-10T08:38:41;5.63;;;3.58;;
52650;SDS011;38537;47.226;39.702;2023-05-10T08:41:08;7.40;;;4.22;;
52650;SDS011;38537;47.226;39.702;2023-05-10T08:43:36;6.80;;;4.82;;
52650;SDS011;38537;47.226;39.702;2023-05-10T08:46:05;6.90;;;4.80;;
52650;SDS011;38537;47.226;39.702;2023-05-10T08:48:34;6.03;;;3.88;;
52650;SDS011;38537;47.226;39.702;2023-05-10T08:51:02;8.20;;;4.35;;
52650;SDS011;38537;47.226;39.702;2023-05-10T08:53:31;5.85;;;4.45;;
52650;SDS011;38537;47.226;39.702;2023-05-10T08:56:02;7.75;;;4.80;;
52650;SDS011;38537;47.226;39.702;2023-05-10T08:58:30;6.60;;;4.25;;
52650;SDS011;38537;47.226;39.702;2023-05-10T09:00:59;5.82;;;4.75;;
52650;SDS011;38537;47.226;39.702;2023-05-10T09:03:27;8.05;;;4.47;;
52650;SDS011;38537;47.226;39.702;2023-05-10T09:05:55;7.53;;;4.35;;
52650;SDS011;38537;47.226;39.702;2023-05-10T09:08:25;5.07;;;3.78;;
52650;SDS011;38537;47.226;39.702;2023-05-10T09:10:56;6.80;;;4.35;;
52650;SDS011;38537;47.226;39.702;2023-05-10T09:13:24;8.95;;;5.03;;
52650;SDS011;38537;47.226;39.702;2023-05-10T09:15:52;5.07;;;4.32;;
52650;SDS011;38537;47.226;39.702;2023-05-10T09:18:20;4.90;;;4.40;;
52650;SDS011;38537;47.226;39.702;2023-05-10T09:20:48;5.25;;;4.63;;
52650;SDS011;38537;47.226;39.702;2023-05-10T09:23:15;5.72;;;5.03;;
52650;SDS011;38537;47.226;39.702;2023-05-10T09:25:42;5.80;;;4.57;;
52650;SDS011;38537;47.226;39.702;2023-05-10T09:28:10;6.72;;;4.60;;
52650;SDS011;38537;47.226;39.702;2023-05-10T09:30:38;7.30;;;4.03;;
52650;SDS011;38537;47.226;39.702;2023-05-10T09:33:06;6.05;;;3.67;;
52650;SDS011;38537;47.226;39.702;2023-05-10T09:35:34;5.85;;;3.60;;
52650;SDS011;38537;47.226;39.702;2023-05-10T09:38:03;7.30;;;4.75;;
52650;SDS011;38537;47.226;39.702;2023-05-10T09:40:32;5.57;;;4.25;;
52650;SDS011;38537;47.226;39.702;2023-05-10T09:43:00;8.35;;;4.35;;
52650;SDS011;38537;47.226;39.702;2023-05-10T09:45:30;5.95;;;4.05;;
52650;SDS011;38537;47.226;39.702;2023-05-10T09:48:00;8.20;;;4.70;;
52650;SDS011;38537;47.226;39.702;2023-05-10T09:50:29;5.68;;;4.15;;
52650;SDS011;38537;47.226;39.702;2023-05-10T09:52:57;5.78;;;4.20;;
52650;SDS011;38537;47.226;39.702;2023-05-10T09:55:39;5.50;;;4.03;;
52650;SDS011;38537;47.226;39.702;2023-05-10T09:58:15;7.18;;;4.70;;
52650;SDS011;38537;47.226;39.702;2023-05-10T10:00:43;6.25;;;4.47;;
52650;SDS011;38537;47.226;39.702;2023-05-10T10:03:12;6.63;;;4.78;;
52650;SDS011;38537;47.226;39.702;2023-05-10T10:05:42;8.85;;;4.53;;
52650;SDS011;38537;47.226;39.702;2023-05-10T10:08:10;9.00;;;5.20;;
52650;SDS011;38537;47.226;39.702;2023-05-10T10:10:39;7.97;;;4.47;;
52650;SDS011;38537;47.226;39.702;2023-05-10T10:13:07;4.85;;;4.30;;
52650;SDS011;38537;47.226;39.702;2023-05-10T10:15:35;6.07;;;4.38;;
52650;SDS011;38537;47.226;39.702;2023-05-10T10:18:02;7.15;;;4.30;;
52650;SDS011;38537;47.226;39.702;2023-05-10T10:20:32;5.40;;;3.90;;
52650;SDS011;38537;47.226;39.702;2023-05-10T10:22:59;5.47;;;4.07;;
52650;SDS011;38537;47.226;39.702;2023-05-10T10:25:26;7.88;;;5.03;;
52650;SDS011;38537;47.226;39.702;2023-05-10T10:33:13;5.15;;;4.47;;
52650;SDS011;38537;47.226;39.702;2023-05-10T10:36:00;5.28;;;4.55;;
52650;SDS011;38537;47.226;39.702;2023-05-10T10:39:12;6.78;;;4.90;;
52650;SDS011;38537;47.226;39.702;2023-05-10T10:41:29;5.85;;;5.00;;
52650;SDS011;38537;47.226;39.702;2023-05-10T10:52:24;5.45;;;4.45;;
52650;SDS011;38537;47.226;39.702;2023-05-10T10:57:53;8.20;;;4.90;;
52650;SDS011;38537;47.226;39.702;2023-05-10T11:00:28;9.20;;;4.82;;
52650;SDS011;38537;47.226;39.702;2023-05-10T11:03:04;6.10;;;4.78;;
52650;SDS011;38537;47.226;39.702;2023-05-10T11:05:41;7.23;;;4.60;;
52650;SDS011;38537;47.226;39.702;2023-05-10T11:08:16;6.32;;;4.55;;
52650;SDS011;38537;47.226;39.702;2023-05-10T11:16:14;6.65;;;4.70;;
52650;SDS011;38537;47.226;39.702;2023-05-10T11:18:57;6.45;;;4.55;;
52650;SDS011;38537;47.226;39.702;2023-05-10T11:21:27;6.35;;;4.95;;
52650;SDS011;38537;47.226;39.702;2023-05-10T11:23:55;6.38;;;4.80;;
52650;SDS011;38537;47.226;39.702;2023-05-10T11:26:25;6.15;;;4.75;;
52650;SDS011;38537;47.226;39.702;2023-05-10T11:28:58;6.10;;;5.10;;
52650;SDS011;38537;47.226;39.702;2023-05-10T11:31:27;6.88;;;5.10;;
52650;SDS011;38537;47.226;39.702;2023-05-10T11:33:57;7.95;;;5.05;;
52650;SDS011;38537;47.226;39.702;2023-05-10T11:36:31;6.68;;;4.18;;
52650;SDS011;38537;47.226;39.702;2023-05-10T11:39:00;8.65;;;4.45;;
52650;SDS011;38537;47.226;39.702;2023-05-10T11:41:28;4.75;;;4.10;;
52650;SDS011;38537;47.226;39.702;2023-05-10T11:43:56;5.55;;;4.15;;
52650;SDS011;38537;47.226;39.702;2023-05-10T11:46:25;6.13;;;4.20;;
52650;SDS011;38537;47.226;39.702;2023-05-10T11:48:56;5.63;;;4.40;;
52650;SDS011;38537;47.226;39.702;2023-05-10T11:51:28;4.38;;;3.67;;
52650;SDS011;38537;47.226;39.702;2023-05-10T11:53:56;4.75;;;3.95;;
52650;SDS011;38537;47.226;39.702;2023-05-10T11:56:24;5.53;;;3.97;;
52650;SDS011;38537;47.226;39.702;2023-05-10T11:58:54;5.03;;;3.80;;
52650;SDS011;38537;47.226;39.702;2023-05-10T12:01:23;5.20;;;4.00;;
52650;SDS011;38537;47.226;39.702;2023-05-10T12:03:52;7.75;;;4.40;;
52650;SDS011;38537;47.226;39.702;2023-05-10T12:06:21;6.07;;;3.80;;
52650;SDS011;38537;47.226;39.702;2023-05-10T12:08:49;8.02;;;4.95;;
52650;SDS011;38537;47.226;39.702;2023-05-10T12:11:24;6.15;;;4.30;;
52650;SDS011;38537;47.226;39.702;2023-05-10T12:13:53;4.75;;;4.13;;
52650;SDS011;38537;47.226;39.702;2023-05-10T12:16:22;6.93;;;4.38;;
52650;SDS011;38537;47.226;39.702;2023-05-10T12:18:52;5.53;;;4.32;;
52650;SDS011;38537;47.226;39.702;2023-05-10T12:21:20;4.95;;;4.10;;
52650;SDS011;38537;47.226;39.702;2023-05-10T12:23:52;7.53;;;4.75;;
52650;SDS011;38537;47.226;39.702;2023-05-10T12:26:21;5.20;;;4.70;;
52650;SDS011;38537;47.226;39.702;2023-05-10T12:28:50;8.40;;;5.28;;
52650;SDS011;38537;47.226;39.702;2023-05-10T12:31:17;6.30;;;5.13;;
52650;SDS011;38537;47.226;39.702;2023-05-10T12:33:44;7.20;;;5.70;;
52650;SDS011;38537;47.226;39.702;2023-05-10T12:36:13;7.28;;;4.20;;
52650;SDS011;38537;47.226;39.702;2023-05-10T12:38:42;6.90;;;5.07;;
52650;SDS011;38537;47.226;39.702;2023-05-10T12:41:15;6.20;;;4.20;;
52650;SDS011;38537;47.226;39.702;2023-05-10T12:43:44;5.10;;;4.50;;
52650;SDS011;38537;47.226;39.702;2023-05-10T12:46:16;6.47;;;4.38;;
52650;SDS011;38537;47.226;39.702;2023-05-10T12:48:44;7.30;;;4.47;;
52650;SDS011;38537;47.226;39.702;2023-05-10T12:51:34;5.20;;;3.92;;
52650;SDS011;38537;47.226;39.702;2023-05-10T12:54:02;5.68;;;4.03;;
52650;SDS011;38537;47.226;39.702;2023-05-10T12:56:30;6.10;;;3.50;;
52650;SDS011;38537;47.226;39.702;2023-05-10T12:58:57;3.83;;;3.42;;
52650;SDS011;38537;47.226;39.702;2023-05-10T13:01:24;5.68;;;3.42;;
52650;SDS011;38537;47.226;39.702;2023-05-10T13:03:52;4.85;;;3.70;;
52650;SDS011;38537;47.226;39.702;2023-05-10T13:06:19;3.80;;;3.40;;
52650;SDS011;38537;47.226;39.702;2023-05-10T13:08:46;5.07;;;3.10;;
52650;SDS011;38537;47.226;39.702;2023-05-10T13:11:14;5.25;;;3.22;;
52650;SDS011;38537;47.226;39.702;2023-05-10T13:13:44;6.07;;;3.15;;
52650;SDS011;38537;47.226;39.702;2023-05-10T13:16:12;5.13;;;3.20;;
52650;SDS011;38537;47.226;39.702;2023-05-10T13:18:39;4.43;;;2.90;;
52650;SDS011;38537;47.226;39.702;2023-05-10T13:21:07;5.47;;;3.10;;
52650;SDS011;38537;47.226;39.702;2023-05-10T13:23:35;5.03;;;3.10;;
52650;SDS011;38537;47.226;39.702;2023-05-10T13:26:02;4.45;;;3.30;;
52650;SDS011;38537;47.226;39.702;2023-05-10T13:28:29;5.53;;;3.20;;
52650;SDS011;38537;47.226;39.702;2023-05-10T13:30:57;3.80;;;2.90;;
52650;SDS011;38537;47.226;39.702;2023-05-10T13:33:25;4.05;;;2.67;;
52650;SDS011;38537;47.226;39.702;2023-05-10T13:35:52;5.38;;;2.83;;
52650;SDS011;38537;47.226;39.702;2023-05-10T13:38:21;3.78;;;2.80;;
52650;SDS011;38537;47.226;39.702;2023-05-10T13:40:48;3.38;;;2.70;;
52650;SDS011;38537;47.226;39.702;2023-05-10T13:43:19;5.05;;;2.97;;
52650;SDS011;38537;47.226;39.702;2023-05-10T13:45:47;7.10;;;2.97;;
52650;SDS011;38537;47.226;39.702;2023-05-10T13:48:14;4.03;;;3.00;;
52650;SDS011;38537;47.226;39.702;2023-05-10T13:50:44;5.78;;;2.92;;
52650;SDS011;38537;47.226;39.702;2023-05-10T13:53:11;2.92;;;2.60;;
52650;SDS011;38537;47.226;39.702;2023-05-10T13:55:39;4.65;;;2.92;;
52650;SDS011;38537;47.226;39.702;2023-05-10T13:58:07;5.88;;;2.90;;
52650;SDS011;38537;47.226;39.702;2023-05-10T14:00:34;3.50;;;2.60;;
52650;SDS011;38537;47.226;39.702;2023-05-10T14:03:02;4.72;;;3.17;;
52650;SDS011;38537;47.226;39.702;2023-05-10T14:05:32;5.57;;;3.00;;
52650;SDS011;38537;47.226;39.702;2023-05-10T14:08:00;5.40;;;3.17;;
52650;SDS011;38537;47.226;39.702;2023-05-10T14:10:28;4.82;;;3.25;;
52650;SDS011;38537;47.226;39.702;2023-05-10T14:12:55;4.85;;;3.00;;
52650;SDS011;38537;47.226;39.702;2023-05-10T14:15:23;5.25;;;3.03;;
52650;SDS011;38537;47.226;39.702;2023-05-10T14:17:53;4.50;;;3.05;;
52650;SDS011;38537;47.226;39.702;2023-05-10T14:20:20;6.05;;;3.70;;
52650;SDS011;38537;47.226;39.702;2023-05-10T14:22:48;5.10;;;3.67;;
52650;SDS011;38537;47.226;39.702;2023-05-10T14:25:15;9.20;;;4.50;;
52650;SDS011;38537;47.226;39.702;2023-05-10T14:27:43;11.50;;;4.40;;
52650;SDS011;38537;47.226;39.702;2023-05-10T14:30:10;7.88;;;4.78;;
52650;SDS011;38537;47.226;39.702;2023-05-10T14:32:39;5.78;;;3.50;;
52650;SDS011;38537;47.226;39.702;2023-05-10T14:35:07;7.72;;;3.90;;
52650;SDS011;38537;47.226;39.702;2023-05-10T14:37:41;6.25;;;4.55;;
52650;SDS011;38537;47.226;39.702;2023-05-10T14:40:08;6.32;;;3.90;;
52650;SDS011;38537;47.226;39.702;2023-05-10T14:42:35;7.00;;;4.72;;
52650;SDS011;38537;47.226;39.702;2023-05-10T14:45:03;8.68;;;4.07;;
52650;SDS011;38537;47.226;39.702;2023-05-10T14:47:31;3.92;;;3.28;;
52650;SDS011;38537;47.226;39.702;2023-05-10T14:49:58;6.38;;;4.05;;
52650;SDS011;38537;47.226;39.702;2023-05-10T14:52:29;8.20;;;4.00;;
52650;SDS011;38537;47.226;39.702;2023-05-10T14:55:14;4.30;;;3.30;;
52650;SDS011;38537;47.226;39.702;2023-05-10T14:57:42;9.35;;;3.45;;
52650;SDS011;38537;47.226;39.702;2023-05-10T15:00:11;4.07;;;3.10;;
52650;SDS011;38537;47.226;39.702;2023-05-10T15:02:39;6.28;;;2.88;;
52650;SDS011;38537;47.226;39.702;2023-05-10T15:05:08;7.78;;;3.72;;
52650;SDS011;38537;47.226;39.702;2023-05-10T15:07:36;7.38;;;3.40;;
52650;SDS011;38537;47.226;39.702;2023-05-10T15:10:03;4.57;;;2.60;;
52650;SDS011;38537;47.226;39.702;2023-05-10T15:12:32;4.93;;;3.28;;
52650;SDS011;38537;47.226;39.702;2023-05-10T15:14:59;6.18;;;3.60;;
52650;SDS011;38537;47.226;39.702;2023-05-10T15:17:27;7.00;;;3.65;;
52650;SDS011;38537;47.226;39.702;2023-05-10T15:19:55;5.13;;;3.63;;
52650;SDS011;38537;47.226;39.702;2023-05-10T15:22:22;4.18;;;3.03;;
52650;SDS011;38537;47.226;39.702;2023-05-10T15:24:50;7.30;;;3.40;;